Inicio METAR Ruta Wind Satelite

Informe Meteorológico

Fecha: 2020/12/01 18:27:07 Local
2020.12.01 23:27 UTC


Estado: VIGENTE
Operación:VFR
Cartagena / Rafael Nunez, Colombia (SKCG) 10-27N 075-31W 12M
Dec 01, 2020 - 06:00 PM EST / 2020.12.01 2300 UTC
Wind: from the WNW (290 degrees) at 7 MPH (6 KT):0
Visibility: greater than 7 mile(s):0
Sky conditions: partly cloudy
Temperature: 82 F (28 C)
Dew Point: 80 F (27 C)
Relative Humidity: 94%
Pressure (altimeter): 29.79 in. Hg (1008 hPa)
ob: SKCG 012300Z 29006KT 9999 SCT015 SCT070 28/27 A2979
cycle: 23

SKCG 012200Z 30006KT 9999 FEW017 SCT200 29/26 A2977
SKCG 012100Z 26006KT 9999 SCT015 SCT200 28/27 A2977
SKCG 012000Z 23006KT 180V270 9999 FEW015 SCT200 28/27 A2976
SKCG 011900Z 21007KT 200V280 9999 FEW015 SCT200 29/26 A2979
SKCG 011800Z 23006KT 9999 SCT015 BKN200 29/26 A2982

2020/12/01 18:57
TAF SKCG 011630Z 0118/0218 34008KT 9999 FEW017
TEMPO 0119/0122 5000 TSRA SCT015CB
BECMG 0201/0203 05004KT
TEMPO 0210/0212 6000 RA VCFG SCT012 TX32/0118Z TN24/0210Z